Time;durP1;ratioP1;P1;durP2;ratioP2;P2;SDS_P1;SDS_P2;PMS_P1;PMS_P2;Temp;Humidity;BMP_temperature;BMP_pressure;BME280_temperature;BME280_humidity;BME280_pressure;Samples;Min_cycle;Max_cycle;Signal;HPM_P1;HPM_P2
2022/08/29 00:00:24;;;;;;;9.50;6.60;;;;;;;;;;4984077;28;20492;-66
2022/08/29 00:02:50;;;;;;;9.60;6.78;;;;;;;;;;4984060;28;20038;-65
2022/08/29 00:05:22;;;;;;;9.88;6.43;;;;;;;;;;4983338;28;20038;-65
2022/08/29 00:07:47;;;;;;;8.32;6.97;;;;;;;;;;4984458;28;20054;-65
2022/08/29 00:10:13;;;;;;;7.55;6.25;;;;;;;;;;4985008;28;20146;-65
2022/08/29 00:12:38;;;;;;;8.35;6.28;;;;;;;;;;4987018;28;20081;-64
2022/08/29 00:15:05;;;;;;;8.13;6.38;;;;;;;;;;4987263;28;20085;-65
2022/08/29 00:17:30;;;;;;;8.20;7.05;;;;;;;;;;4988318;28;20107;-68
2022/08/29 00:19:55;;;;;;;8.05;7.35;;;;;;;;;;4987030;28;20129;-67
2022/08/29 00:22:20;;;;;;;8.45;6.50;;;;;;;;;;4988127;28;20393;-66
2022/08/29 00:24:46;;;;;;;8.20;7.40;;;;;;;;;;4987177;28;20161;-66
2022/08/29 00:27:12;;;;;;;9.55;7.35;;;;;;;;;;4987715;28;20061;-66
2022/08/29 00:29:38;;;;;;;8.88;6.68;;;;;;;;;;4955728;28;20038;-66
2022/08/29 00:32:03;;;;;;;11.40;7.85;;;;;;;;;;4987315;28;20030;-66
2022/08/29 00:34:28;;;;;;;10.10;7.57;;;;;;;;;;4987146;28;20060;-66
2022/08/29 00:36:54;;;;;;;7.68;6.95;;;;;;;;;;4987518;28;20035;-67
2022/08/29 00:39:19;;;;;;;9.82;7.68;;;;;;;;;;4987475;28;20046;-66
2022/08/29 00:41:44;;;;;;;8.00;7.30;;;;;;;;;;4986613;28;20576;-66
2022/08/29 00:44:10;;;;;;;9.60;7.82;;;;;;;;;;4987304;28;20045;-66
2022/08/29 00:46:37;;;;;;;16.42;8.23;;;;;;;;;;4987088;28;20066;-66
2022/08/29 00:49:05;;;;;;;9.93;7.85;;;;;;;;;;4987142;28;20133;-65
2022/08/29 00:51:31;;;;;;;9.13;7.07;;;;;;;;;;4987224;28;20108;-66
2022/08/29 00:54:04;;;;;;;11.20;7.03;;;;;;;;;;4986370;28;20460;-65
2022/08/29 00:56:30;;;;;;;9.70;7.60;;;;;;;;;;4985741;28;20029;-65
2022/08/29 00:59:01;;;;;;;9.23;6.43;;;;;;;;;;4987269;28;20037;-66
2022/08/29 01:01:26;;;;;;;7.97;7.18;;;;;;;;;;4986983;28;20068;-66
2022/08/29 01:03:52;;;;;;;8.55;7.75;;;;;;;;;;4986427;28;20473;-66
2022/08/29 01:06:18;;;;;;;9.70;7.05;;;;;;;;;;4986966;28;20148;-65
2022/08/29 01:08:44;;;;;;;7.32;6.63;;;;;;;;;;4986532;28;20034;-65
2022/08/29 01:13:56;;;;;;;8.77;7.88;;;;;;;;;;4986911;28;20081;-65
2022/08/29 01:16:22;;;;;;;9.10;6.72;;;;;;;;;;4986831;28;20034;-64
2022/08/29 01:18:50;;;;;;;10.15;7.60;;;;;;;;;;4986819;28;20488;-64
2022/08/29 01:21:47;;;;;;;11.05;7.53;;;;;;;;;;4968727;28;20026;-65
2022/08/29 01:24:22;;;;;;;9.13;7.10;;;;;;;;;;4953327;28;20042;-66
2022/08/29 01:26:47;;;;;;;7.43;6.72;;;;;;;;;;4986559;28;20035;-63
2022/08/29 01:29:13;;;;;;;10.68;6.88;;;;;;;;;;4986397;28;20083;-65
2022/08/29 01:31:40;;;;;;;8.70;7.88;;;;;;;;;;4983942;28;20022;-64
2022/08/29 01:34:06;;;;;;;13.18;7.78;;;;;;;;;;4955698;28;20066;-64
2022/08/29 01:36:31;;;;;;;11.38;7.53;;;;;;;;;;4984112;28;20609;-63
2022/08/29 01:38:57;;;;;;;11.10;7.40;;;;;;;;;;4984605;28;20149;-62
2022/08/29 01:41:22;;;;;;;8.75;6.55;;;;;;;;;;4984122;28;20117;-66
2022/08/29 01:43:50;;;;;;;11.05;7.20;;;;;;;;;;4969436;28;20026;-65
2022/08/29 01:46:18;;;;;;;9.73;6.93;;;;;;;;;;4986011;28;20499;-65
2022/08/29 01:48:44;;;;;;;12.70;6.90;;;;;;;;;;4985820;28;20030;-64
2022/08/29 01:51:09;;;;;;;7.75;7.05;;;;;;;;;;4984600;28;20056;-65
2022/08/29 01:53:35;;;;;;;9.40;6.85;;;;;;;;;;4986208;28;20035;-64
2022/08/29 01:56:08;;;;;;;9.10;6.72;;;;;;;;;;4985637;28;20113;-64
2022/08/29 01:58:33;;;;;;;8.07;6.50;;;;;;;;;;4987044;28;20274;-64
2022/08/29 02:00:58;;;;;;;9.50;7.50;;;;;;;;;;4985610;28;20030;-64
2022/08/29 02:03:24;;;;;;;11.95;6.95;;;;;;;;;;4959619;28;20038;-65
2022/08/29 02:05:49;;;;;;;9.00;6.80;;;;;;;;;;4984764;28;20034;-64
2022/08/29 02:08:15;;;;;;;10.90;7.20;;;;;;;;;;4984553;28;20036;-65
2022/08/29 02:10:41;;;;;;;6.78;6.13;;;;;;;;;;4982816;28;20030;-65
2022/08/29 02:13:06;;;;;;;7.55;6.80;;;;;;;;;;4986468;28;20552;-64
2022/08/29 02:15:31;;;;;;;11.25;6.20;;;;;;;;;;4985748;28;20030;-65
2022/08/29 02:17:57;;;;;;;8.05;6.55;;;;;;;;;;4985622;28;20066;-64
2022/08/29 02:20:22;;;;;;;9.93;7.43;;;;;;;;;;4984786;28;20424;-64
2022/08/29 02:22:47;;;;;;;8.90;7.05;;;;;;;;;;4984907;28;20266;-63
2022/08/29 02:27:57;;;;;;;7.55;6.63;;;;;;;;;;4985620;28;20045;-64
2022/08/29 02:30:24;;;;;;;8.90;7.40;;;;;;;;;;4985591;28;20041;-62
2022/08/29 02:32:49;;;;;;;10.48;7.25;;;;;;;;;;4984837;28;20022;-67
2022/08/29 02:35:14;;;;;;;7.63;6.75;;;;;;;;;;4985411;28;20041;-66
2022/08/29 02:37:40;;;;;;;12.80;7.88;;;;;;;;;;4968109;28;20124;-66
2022/08/29 02:40:06;;;;;;;9.82;7.50;;;;;;;;;;4984858;28;20121;-65
2022/08/29 02:42:31;;;;;;;8.77;8.02;;;;;;;;;;4984954;28;20059;-65
2022/08/29 02:44:56;;;;;;;8.50;7.25;;;;;;;;;;4967874;28;20030;-66
2022/08/29 02:47:21;;;;;;;10.10;7.38;;;;;;;;;;4984982;28;20034;-65
2022/08/29 02:49:47;;;;;;;7.88;7.00;;;;;;;;;;4985153;28;20027;-65
2022/08/29 02:52:13;;;;;;;8.32;6.93;;;;;;;;;;4984266;28;20042;-66
2022/08/29 02:54:38;;;;;;;9.60;6.63;;;;;;;;;;4985660;28;20480;-65
2022/08/29 02:57:04;;;;;;;10.90;7.60;;;;;;;;;;4958283;28;20057;-65
2022/08/29 02:59:29;;;;;;;11.00;7.55;;;;;;;;;;4985080;28;20031;-65
2022/08/29 03:01:54;;;;;;;8.63;6.88;;;;;;;;;;4984947;28;20037;-65
2022/08/29 03:04:20;;;;;;;7.97;7.07;;;;;;;;;;4985603;28;20115;-66
2022/08/29 03:06:45;;;;;;;8.05;7.18;;;;;;;;;;4963214;28;20038;-65
2022/08/29 03:09:11;;;;;;;8.05;6.97;;;;;;;;;;4980316;28;20037;-65
2022/08/29 03:11:36;;;;;;;12.45;7.22;;;;;;;;;;4984515;28;20026;-67
2022/08/29 03:14:02;;;;;;;7.20;6.50;;;;;;;;;;4985344;28;20115;-66
2022/08/29 03:16:27;;;;;;;8.20;6.90;;;;;;;;;;4984672;28;20072;-66
2022/08/29 03:18:53;;;;;;;10.32;6.25;;;;;;;;;;4985602;28;20038;-66
2022/08/29 03:21:20;;;;;;;9.77;6.75;;;;;;;;;;4983945;28;20057;-66
2022/08/29 03:23:45;;;;;;;8.45;6.53;;;;;;;;;;4984853;28;20098;-66
2022/08/29 03:26:10;;;;;;;9.52;7.75;;;;;;;;;;4984567;28;20036;-66
2022/08/29 03:28:36;;;;;;;10.32;7.68;;;;;;;;;;4985591;28;20552;-65
2022/08/29 03:31:01;;;;;;;11.68;7.88;;;;;;;;;;4984316;28;20124;-65
2022/08/29 03:33:26;;;;;;;12.32;6.93;;;;;;;;;;4958245;28;20058;-65
2022/08/29 03:35:52;;;;;;;8.45;7.50;;;;;;;;;;4966086;28;20030;-65
2022/08/29 03:38:17;;;;;;;11.80;7.80;;;;;;;;;;4984335;28;20395;-67
2022/08/29 03:40:42;;;;;;;10.13;7.20;;;;;;;;;;4985409;28;20034;-66
2022/08/29 03:43:08;;;;;;;10.95;6.70;;;;;;;;;;4984467;28;20590;-66
2022/08/29 03:45:33;;;;;;;8.88;7.00;;;;;;;;;;4986683;28;20030;-66
2022/08/29 03:47:58;;;;;;;7.60;6.75;;;;;;;;;;4988854;28;20025;-65
2022/08/29 03:50:24;;;;;;;8.95;6.70;;;;;;;;;;4988367;28;20026;-65
2022/08/29 03:52:50;;;;;;;8.48;7.15;;;;;;;;;;4988180;28;20035;-65
2022/08/29 03:55:16;;;;;;;10.15;8.15;;;;;;;;;;4983975;28;20811;-66
2022/08/29 03:57:42;;;;;;;8.75;6.28;;;;;;;;;;4985371;28;20173;-66
2022/08/29 04:00:14;;;;;;;13.02;5.90;;;;;;;;;;4989262;28;20125;-68
2022/08/29 04:02:40;;;;;;;11.07;6.78;;;;;;;;;;4988985;28;20038;-66
2022/08/29 04:05:05;;;;;;;11.70;6.43;;;;;;;;;;4962159;28;20125;-66
2022/08/29 04:07:36;;;;;;;10.35;6.55;;;;;;;;;;4988906;28;20444;-66
2022/08/29 04:10:03;;;;;;;9.27;6.03;;;;;;;;;;4988299;28;20037;-65
2022/08/29 04:12:28;;;;;;;8.15;6.20;;;;;;;;;;4987917;28;20030;-66
2022/08/29 04:14:53;;;;;;;9.98;7.10;;;;;;;;;;4988649;28;20080;-66
2022/08/29 04:17:18;;;;;;;9.18;7.13;;;;;;;;;;4988406;28;20242;-66
2022/08/29 04:19:44;;;;;;;7.85;6.28;;;;;;;;;;4986995;28;20026;-65
2022/08/29 04:22:09;;;;;;;11.13;7.05;;;;;;;;;;4987599;28;20484;-66
2022/08/29 04:24:34;;;;;;;10.32;6.65;;;;;;;;;;4986104;28;20141;-65
2022/08/29 04:26:59;;;;;;;7.97;6.28;;;;;;;;;;4987707;28;20069;-65
2022/08/29 04:29:25;;;;;;;10.15;6.88;;;;;;;;;;4972344;28;20378;-66
2022/08/29 04:31:50;;;;;;;11.27;6.93;;;;;;;;;;4970590;28;20030;-66
2022/08/29 04:34:16;;;;;;;7.63;6.30;;;;;;;;;;4988231;28;20553;-66
2022/08/29 04:36:43;;;;;;;11.25;6.20;;;;;;;;;;4987597;28;20035;-66
2022/08/29 04:39:08;;;;;;;7.85;5.68;;;;;;;;;;4987737;28;20464;-66
2022/08/29 04:41:34;;;;;;;8.23;6.53;;;;;;;;;;4987712;28;20041;-66
2022/08/29 04:44:00;;;;;;;8.07;6.32;;;;;;;;;;4987730;28;20060;-65
2022/08/29 04:46:25;;;;;;;7.82;6.18;;;;;;;;;;4987265;28;20038;-65
2022/08/29 04:48:51;;;;;;;7.63;6.18;;;;;;;;;;4988110;28;20381;-65
2022/08/29 04:51:17;;;;;;;8.50;5.97;;;;;;;;;;4987158;28;20030;-65
2022/08/29 04:53:42;;;;;;;9.43;5.93;;;;;;;;;;4987875;28;20038;-66
2022/08/29 04:56:08;;;;;;;11.45;6.10;;;;;;;;;;4986390;28;20058;-65
2022/08/29 04:58:35;;;;;;;7.97;6.22;;;;;;;;;;4987368;28;20092;-65
2022/08/29 05:01:01;;;;;;;9.13;6.18;;;;;;;;;;4987402;28;20321;-65
2022/08/29 05:03:26;;;;;;;9.00;5.80;;;;;;;;;;4987282;28;20046;-65
2022/08/29 05:05:59;;;;;;;13.25;6.13;;;;;;;;;;4987227;28;20036;-65
2022/08/29 05:08:25;;;;;;;8.43;5.93;;;;;;;;;;4987419;28;20029;-66
2022/08/29 05:10:50;;;;;;;9.68;6.20;;;;;;;;;;4987733;28;20038;-65
2022/08/29 05:13:15;;;;;;;9.43;5.38;;;;;;;;;;4986781;28;20045;-67
2022/08/29 05:15:41;;;;;;;8.45;6.00;;;;;;;;;;4986849;28;20040;-67
2022/08/29 05:18:06;;;;;;;10.60;6.18;;;;;;;;;;4986889;28;20053;-64
2022/08/29 05:20:31;;;;;;;10.68;5.28;;;;;;;;;;4986525;28;20037;-65
2022/08/29 05:22:56;;;;;;;8.05;5.68;;;;;;;;;;4986245;28;20037;-65
2022/08/29 05:25:22;;;;;;;6.68;5.97;;;;;;;;;;4987503;28;20468;-65
2022/08/29 05:27:47;;;;;;;6.10;5.07;;;;;;;;;;4968411;28;20599;-65
2022/08/29 05:30:12;;;;;;;7.97;6.07;;;;;;;;;;4987550;28;20117;-65
2022/08/29 05:32:38;;;;;;;8.30;5.63;;;;;;;;;;4986684;28;20168;-65
2022/08/29 05:35:03;;;;;;;8.50;5.40;;;;;;;;;;4986402;28;20408;-64
2022/08/29 05:37:28;;;;;;;9.75;5.07;;;;;;;;;;4986670;28;20551;-65
2022/08/29 05:39:54;;;;;;;8.75;5.18;;;;;;;;;;4986834;28;20058;-66
2022/08/29 05:42:21;;;;;;;8.57;5.93;;;;;;;;;;4985790;28;20042;-66
2022/08/29 05:44:46;;;;;;;13.43;6.10;;;;;;;;;;4986339;28;20034;-65
2022/08/29 05:47:12;;;;;;;7.35;5.40;;;;;;;;;;4987123;28;20362;-66
2022/08/29 05:49:38;;;;;;;16.63;6.45;;;;;;;;;;4986333;28;20026;-66
2022/08/29 05:52:04;;;;;;;6.88;5.25;;;;;;;;;;4986250;28;20035;-65
2022/08/29 05:54:31;;;;;;;9.60;5.47;;;;;;;;;;4987235;28;20027;-65
2022/08/29 05:56:56;;;;;;;7.78;5.03;;;;;;;;;;4985045;28;20038;-65
2022/08/29 05:59:22;;;;;;;11.38;5.35;;;;;;;;;;4986357;28;20436;-65
2022/08/29 06:01:47;;;;;;;9.00;5.88;;;;;;;;;;4986484;28;20031;-66
2022/08/29 06:04:12;;;;;;;7.55;5.13;;;;;;;;;;4985546;28;20034;-66
2022/08/29 06:06:38;;;;;;;8.90;5.78;;;;;;;;;;4987332;28;20032;-66
2022/08/29 06:09:04;;;;;;;9.27;6.30;;;;;;;;;;4985751;28;20035;-66
2022/08/29 06:11:30;;;;;;;13.30;5.53;;;;;;;;;;4984971;28;20389;-65
2022/08/29 06:13:56;;;;;;;7.45;5.45;;;;;;;;;;4984631;28;20322;-66
2022/08/29 06:16:22;;;;;;;11.23;5.82;;;;;;;;;;4986430;28;20026;-66
2022/08/29 06:18:47;;;;;;;8.00;5.57;;;;;;;;;;4984597;28;20028;-66
2022/08/29 06:21:13;;;;;;;9.90;5.35;;;;;;;;;;4981358;28;20480;-66
2022/08/29 06:23:39;;;;;;;11.75;7.07;;;;;;;;;;4982068;28;20026;-66
2022/08/29 06:26:05;;;;;;;10.40;6.03;;;;;;;;;;4982621;28;20507;-66
2022/08/29 06:28:31;;;;;;;6.25;5.65;;;;;;;;;;4954548;28;20050;-66
2022/08/29 06:31:03;;;;;;;11.23;6.25;;;;;;;;;;4985496;28;20511;-66
2022/08/29 06:33:28;;;;;;;9.60;6.40;;;;;;;;;;4985526;28;20050;-65
2022/08/29 06:35:53;;;;;;;10.25;5.53;;;;;;;;;;4985338;28;20077;-66
2022/08/29 06:38:18;;;;;;;8.70;6.22;;;;;;;;;;4985242;28;20026;-65
2022/08/29 06:40:44;;;;;;;9.02;5.63;;;;;;;;;;4985011;28;20033;-65
2022/08/29 06:43:09;;;;;;;8.55;6.05;;;;;;;;;;4981996;28;20041;-66
2022/08/29 06:45:38;;;;;;;9.40;5.70;;;;;;;;;;4981196;28;20030;-68
2022/08/29 06:48:03;;;;;;;8.30;5.32;;;;;;;;;;4982892;28;20030;-68
2022/08/29 06:50:29;;;;;;;5.65;5.15;;;;;;;;;;4980314;28;20093;-68
2022/08/29 06:52:54;;;;;;;10.98;5.75;;;;;;;;;;4980761;28;20592;-68
2022/08/29 06:55:19;;;;;;;9.80;5.80;;;;;;;;;;4983123;28;20052;-68
2022/08/29 06:57:45;;;;;;;9.48;5.85;;;;;;;;;;4980810;28;20129;-67
2022/08/29 07:00:12;;;;;;;9.48;6.15;;;;;;;;;;4983984;28;20164;-70
2022/08/29 07:02:38;;;;;;;6.78;6.07;;;;;;;;;;4968098;28;20404;-69
2022/08/29 07:05:03;;;;;;;7.80;5.38;;;;;;;;;;4985179;28;20041;-69
2022/08/29 07:07:29;;;;;;;8.40;5.13;;;;;;;;;;4958530;28;20435;-69
2022/08/29 07:09:54;;;;;;;9.35;5.32;;;;;;;;;;4984676;28;20531;-63
2022/08/29 07:12:19;;;;;;;9.80;5.40;;;;;;;;;;4984947;28;20034;-63
2022/08/29 07:14:45;;;;;;;8.27;4.95;;;;;;;;;;4980594;28;20112;-60
2022/08/29 07:17:10;;;;;;;10.05;5.63;;;;;;;;;;4980181;28;20027;-72
2022/08/29 07:19:36;;;;;;;9.48;5.45;;;;;;;;;;4967750;28;20030;-68
2022/08/29 07:22:01;;;;;;;10.52;6.13;;;;;;;;;;4984954;28;20088;-68
2022/08/29 07:24:26;;;;;;;9.88;5.75;;;;;;;;;;4985881;28;20038;-69
2022/08/29 07:26:52;;;;;;;7.22;5.63;;;;;;;;;;4987001;28;20040;-71
2022/08/29 07:29:19;;;;;;;13.50;5.78;;;;;;;;;;4989420;28;20065;-70
2022/08/29 07:31:45;;;;;;;8.30;5.90;;;;;;;;;;4989336;28;20026;-69
2022/08/29 07:34:10;;;;;;;8.52;5.43;;;;;;;;;;4988823;28;20440;-69
2022/08/29 07:36:36;;;;;;;7.78;5.53;;;;;;;;;;4983699;28;20026;-72
2022/08/29 07:39:03;;;;;;;6.45;5.53;;;;;;;;;;4985335;28;20036;-68
2022/08/29 07:41:28;;;;;;;6.70;5.97;;;;;;;;;;4982267;28;20026;-70
2022/08/29 07:43:53;;;;;;;8.27;5.88;;;;;;;;;;4982790;28;20034;-70
2022/08/29 07:46:19;;;;;;;8.57;5.43;;;;;;;;;;4981681;28;20063;-70
2022/08/29 07:48:45;;;;;;;7.95;5.47;;;;;;;;;;4981524;28;20084;-69
2022/08/29 07:51:12;;;;;;;7.25;5.82;;;;;;;;;;4984459;28;20030;-66
2022/08/29 07:53:38;;;;;;;9.52;5.63;;;;;;;;;;4984027;28;20030;-65
2022/08/29 07:56:04;;;;;;;7.50;5.57;;;;;;;;;;4982313;28;20030;-66
2022/08/29 07:58:30;;;;;;;5.68;5.05;;;;;;;;;;4983813;28;20415;-66
2022/08/29 08:00:55;;;;;;;6.95;4.80;;;;;;;;;;4986068;28;20034;-65
2022/08/29 08:03:20;;;;;;;13.88;6.57;;;;;;;;;;4984134;28;20409;-66
2022/08/29 08:05:45;;;;;;;6.00;5.05;;;;;;;;;;4966368;28;20034;-65
2022/08/29 08:08:11;;;;;;;8.48;5.30;;;;;;;;;;4985948;28;20315;-66
2022/08/29 08:10:37;;;;;;;5.05;4.55;;;;;;;;;;4984743;28;20396;-65
2022/08/29 08:13:03;;;;;;;6.72;5.15;;;;;;;;;;4964041;28;20034;-65
2022/08/29 08:15:28;;;;;;;5.85;4.93;;;;;;;;;;4979761;28;20120;-66
2022/08/29 08:17:53;;;;;;;13.15;4.82;;;;;;;;;;4984852;28;20023;-66
2022/08/29 08:20:18;;;;;;;5.75;4.10;;;;;;;;;;4965895;28;20440;-64
2022/08/29 08:22:44;;;;;;;7.32;3.83;;;;;;;;;;4984923;28;20026;-62
2022/08/29 08:25:09;;;;;;;5.75;4.18;;;;;;;;;;4967386;28;20117;-60
2022/08/29 08:27:34;;;;;;;5.25;4.20;;;;;;;;;;4984211;28;20035;-64
2022/08/29 08:29:59;;;;;;;7.22;3.83;;;;;;;;;;4984375;28;20469;-65
2022/08/29 08:32:26;;;;;;;6.65;4.03;;;;;;;;;;4988908;28;20073;-65
2022/08/29 08:34:52;;;;;;;5.13;4.00;;;;;;;;;;4988491;28;20062;-66
2022/08/29 08:37:17;;;;;;;7.35;4.88;;;;;;;;;;4971564;28;20337;-64
2022/08/29 08:39:42;;;;;;;5.47;4.00;;;;;;;;;;4987264;28;20476;-66
2022/08/29 08:42:16;;;;;;;7.10;4.95;;;;;;;;;;4988303;28;20037;-66
2022/08/29 08:44:41;;;;;;;6.50;4.03;;;;;;;;;;4987069;28;20041;-65
2022/08/29 08:47:07;;;;;;;5.38;4.40;;;;;;;;;;4970655;28;20031;-65
2022/08/29 08:49:38;;;;;;;8.98;5.53;;;;;;;;;;4962869;28;20128;-64
2022/08/29 08:52:07;;;;;;;7.05;4.40;;;;;;;;;;4988180;28;20210;-64
2022/08/29 08:54:37;;;;;;;8.85;4.47;;;;;;;;;;4986956;28;20109;-64
2022/08/29 08:57:06;;;;;;;4.93;3.42;;;;;;;;;;4986130;28;20472;-64
2022/08/29 08:59:34;;;;;;;7.53;4.25;;;;;;;;;;4987607;28;20037;-64
2022/08/29 09:02:10;;;;;;;6.75;3.90;;;;;;;;;;4987984;28;20054;-65
2022/08/29 09:04:41;;;;;;;7.20;4.00;;;;;;;;;;4988369;28;20576;-66
2022/08/29 09:07:13;;;;;;;5.97;3.95;;;;;;;;;;4988187;28;20065;-60
2022/08/29 09:09:45;;;;;;;5.15;4.72;;;;;;;;;;4980749;28;20030;-61
2022/08/29 09:12:13;;;;;;;5.80;4.15;;;;;;;;;;4984907;28;20030;-62
2022/08/29 09:14:59;;;;;;;8.13;4.20;;;;;;;;;;4985757;28;20659;-65
2022/08/29 09:17:46;;;;;;;5.50;4.13;;;;;;;;;;4987802;28;20468;-65
2022/08/29 09:20:14;;;;;;;8.20;4.15;;;;;;;;;;4982467;28;20105;-66
2022/08/29 09:22:40;;;;;;;3.65;3.33;;;;;;;;;;4982369;28;20456;-67
2022/08/29 09:25:07;;;;;;;4.60;3.13;;;;;;;;;;4986564;28;20038;-67
2022/08/29 09:27:34;;;;;;;5.50;4.25;;;;;;;;;;4986846;28;20033;-68
2022/08/29 09:30:19;;;;;;;6.63;4.85;;;;;;;;;;4986275;28;20038;-67
2022/08/29 09:32:50;;;;;;;4.72;3.85;;;;;;;;;;4986420;28;20113;-67
2022/08/29 09:35:17;;;;;;;7.03;4.15;;;;;;;;;;4986912;28;20046;-67
2022/08/29 09:37:53;;;;;;;6.75;4.63;;;;;;;;;;4981428;28;20112;-67
2022/08/29 09:40:18;;;;;;;4.85;3.70;;;;;;;;;;4982144;28;20022;-66
2022/08/29 09:42:47;;;;;;;7.35;4.10;;;;;;;;;;4986035;28;20037;-66
2022/08/29 09:45:20;;;;;;;4.78;3.78;;;;;;;;;;4983455;28;20026;-67
2022/08/29 09:47:45;;;;;;;6.20;4.43;;;;;;;;;;4980856;28;20022;-67
2022/08/29 09:50:20;;;;;;;7.35;5.35;;;;;;;;;;4982196;28;20026;-68
2022/08/29 09:52:56;;;;;;;6.05;4.15;;;;;;;;;;4978048;28;20022;-65
2022/08/29 09:55:21;;;;;;;4.35;3.58;;;;;;;;;;4983190;28;20473;-65
2022/08/29 09:58:01;;;;;;;6.18;4.00;;;;;;;;;;4985670;28;20034;-66
2022/08/29 10:00:28;;;;;;;6.05;4.20;;;;;;;;;;4984588;28;20497;-65
2022/08/29 10:03:01;;;;;;;5.90;3.78;;;;;;;;;;4985883;28;20022;-68
2022/08/29 10:05:34;;;;;;;4.95;4.05;;;;;;;;;;4984289;28;20412;-67
2022/08/29 10:08:00;;;;;;;6.03;4.55;;;;;;;;;;4984730;28;20033;-64
2022/08/29 10:10:28;;;;;;;5.80;4.32;;;;;;;;;;4985139;28;20022;-64
2022/08/29 10:13:03;;;;;;;4.00;3.55;;;;;;;;;;4985019;28;20103;-63
2022/08/29 10:15:40;;;;;;;5.28;3.85;;;;;;;;;;4985369;28;20030;-62
2022/08/29 10:18:22;;;;;;;6.18;4.38;;;;;;;;;;4981802;28;20022;-61
2022/08/29 10:20:51;;;;;;;4.05;3.53;;;;;;;;;;4979851;28;20037;-62
2022/08/29 10:23:28;;;;;;;5.93;4.28;;;;;;;;;;4965102;28;20077;-64
2022/08/29 10:25:55;;;;;;;4.10;3.80;;;;;;;;;;4984317;28;20022;-67
2022/08/29 10:28:43;;;;;;;4.03;3.72;;;;;;;;;;4985323;28;20026;-65
2022/08/29 10:31:12;;;;;;;7.35;3.63;;;;;;;;;;4984248;28;20042;-65
2022/08/29 10:33:46;;;;;;;5.40;4.30;;;;;;;;;;4984276;28;20140;-67
2022/08/29 10:36:16;;;;;;;4.50;4.13;;;;;;;;;;4985020;28;20129;-64
2022/08/29 10:38:59;;;;;;;5.90;4.13;;;;;;;;;;4983008;28;20423;-65
2022/08/29 10:41:36;;;;;;;4.72;3.78;;;;;;;;;;4983222;28;20022;-65
2022/08/29 10:44:01;;;;;;;4.72;4.32;;;;;;;;;;4984197;28;20081;-64
2022/08/29 10:46:36;;;;;;;4.88;4.38;;;;;;;;;;4985005;28;20022;-65
2022/08/29 10:49:10;;;;;;;5.57;3.85;;;;;;;;;;4983508;28;20030;-66
2022/08/29 10:51:41;;;;;;;5.85;4.30;;;;;;;;;;4964580;28;20053;-61
2022/08/29 10:54:27;;;;;;;5.35;4.30;;;;;;;;;;4977525;28;20026;-67
2022/08/29 10:56:53;;;;;;;6.18;4.05;;;;;;;;;;4980769;28;20034;-66
2022/08/29 10:59:18;;;;;;;4.22;3.80;;;;;;;;;;4961620;28;20278;-68
2022/08/29 11:01:59;;;;;;;5.65;3.13;;;;;;;;;;4979407;28;20531;-66
2022/08/29 11:04:39;;;;;;;4.13;3.83;;;;;;;;;;4980899;28;20420;-67
2022/08/29 11:07:15;;;;;;;4.78;4.38;;;;;;;;;;4977632;28;20027;-67
2022/08/29 11:10:01;;;;;;;7.32;3.80;;;;;;;;;;4978856;28;20081;-67
2022/08/29 11:12:30;;;;;;;5.88;5.15;;;;;;;;;;4983725;28;20026;-67
2022/08/29 11:14:58;;;;;;;4.40;3.72;;;;;;;;;;4983503;28;20018;-67
2022/08/29 11:17:25;;;;;;;6.20;4.60;;;;;;;;;;4983582;28;20015;-67
2022/08/29 11:20:12;;;;;;;4.15;3.80;;;;;;;;;;4966477;28;20133;-66
2022/08/29 11:22:43;;;;;;;5.45;4.22;;;;;;;;;;4984437;28;20030;-61
2022/08/29 11:25:10;;;;;;;4.25;3.90;;;;;;;;;;4984618;28;20041;-68
2022/08/29 11:27:55;;;;;;;4.57;4.18;;;;;;;;;;4983007;28;20357;-68
2022/08/29 11:30:30;;;;;;;5.68;4.60;;;;;;;;;;4984125;28;20031;-67
2022/08/29 11:32:56;;;;;;;4.35;3.95;;;;;;;;;;4982866;28;20023;-67
2022/08/29 11:35:24;;;;;;;4.75;4.35;;;;;;;;;;4984674;28;20073;-67
2022/08/29 11:37:50;;;;;;;4.38;3.97;;;;;;;;;;4983714;28;20061;-67
2022/08/29 11:40:36;;;;;;;7.03;4.70;;;;;;;;;;4970486;28;20457;-66
2022/08/29 11:43:02;;;;;;;7.53;5.10;;;;;;;;;;4983232;28;20480;-66
2022/08/29 11:45:30;;;;;;;6.15;5.65;;;;;;;;;;4984665;28;20053;-67
2022/08/29 11:48:00;;;;;;;5.15;4.65;;;;;;;;;;4983309;28;20564;-67
2022/08/29 11:50:35;;;;;;;5.03;4.53;;;;;;;;;;4983751;28;20026;-65
2022/08/29 11:53:07;;;;;;;11.27;5.72;;;;;;;;;;4978755;28;20455;-67
2022/08/29 11:55:34;;;;;;;5.28;4.43;;;;;;;;;;4979139;28;20081;-66
2022/08/29 11:58:20;;;;;;;5.13;4.45;;;;;;;;;;4983619;28;20232;-68
2022/08/29 12:00:55;;;;;;;7.03;4.63;;;;;;;;;;4941726;28;20584;-65
2022/08/29 12:03:32;;;;;;;6.53;4.65;;;;;;;;;;4983299;28;20665;-64
2022/08/29 12:06:11;;;;;;;4.95;4.55;;;;;;;;;;4985232;28;20018;-65
2022/08/29 12:08:45;;;;;;;6.18;5.60;;;;;;;;;;4986654;28;20026;-66
2022/08/29 12:11:11;;;;;;;6.40;4.00;;;;;;;;;;4987670;28;20034;-66
2022/08/29 12:13:45;;;;;;;4.40;4.00;;;;;;;;;;4974260;28;20034;-64
2022/08/29 12:16:12;;;;;;;6.07;4.40;;;;;;;;;;4987299;28;20104;-60
2022/08/29 12:18:43;;;;;;;5.43;4.93;;;;;;;;;;4986106;28;20076;-63
2022/08/29 12:21:45;;;;;;;6.50;4.90;;;;;;;;;;4987598;28;20030;-61
2022/08/29 12:24:29;;;;;;;6.10;4.82;;;;;;;;;;4907264;29;20036;-62
2022/08/29 12:26:55;;;;;;;5.47;4.47;;;;;;;;;;4906740;29;20059;-61
2022/08/29 12:29:25;;;;;;;5.78;5.22;;;;;;;;;;4905281;29;20136;-62
2022/08/29 12:31:58;;;;;;;5.25;4.80;;;;;;;;;;4906791;29;20044;-62
2022/08/29 12:34:44;;;;;;;5.03;4.53;;;;;;;;;;4906139;29;20051;-61
2022/08/29 12:37:09;;;;;;;4.90;4.50;;;;;;;;;;4905755;29;20039;-62
2022/08/29 12:39:52;;;;;;;5.45;4.22;;;;;;;;;;4901853;29;20052;-61
2022/08/29 12:42:36;;;;;;;5.05;4.63;;;;;;;;;;4901934;29;20050;-62
2022/08/29 12:45:01;;;;;;;5.13;4.65;;;;;;;;;;4906298;29;20067;-61
2022/08/29 12:47:37;;;;;;;5.25;4.85;;;;;;;;;;4906952;29;20032;-61
2022/08/29 12:50:04;;;;;;;5.30;4.70;;;;;;;;;;4906655;29;20024;-61
2022/08/29 12:52:32;;;;;;;6.45;4.78;;;;;;;;;;4906537;29;20074;-61
2022/08/29 12:55:02;;;;;;;7.18;5.05;;;;;;;;;;4906795;29;20024;-60
2022/08/29 12:57:35;;;;;;;7.85;5.20;;;;;;;;;;4917097;28;20046;-62
2022/08/29 13:00:04;;;;;;;6.23;4.80;;;;;;;;;;4967787;28;20030;-62
2022/08/29 13:02:36;;;;;;;5.68;5.15;;;;;;;;;;4967031;28;20050;-62
2022/08/29 13:05:04;;;;;;;4.80;4.40;;;;;;;;;;4966633;28;20689;-64
2022/08/29 13:07:29;;;;;;;5.05;4.57;;;;;;;;;;4966693;28;20141;-62
2022/08/29 13:09:56;;;;;;;5.07;4.57;;;;;;;;;;4966872;28;20489;-60
2022/08/29 13:12:26;;;;;;;4.78;4.28;;;;;;;;;;4966715;28;20117;-62
2022/08/29 13:14:51;;;;;;;4.93;4.53;;;;;;;;;;4966908;28;20031;-61
2022/08/29 13:17:18;;;;;;;6.03;5.47;;;;;;;;;;4965359;28;20031;-61
2022/08/29 13:20:03;;;;;;;7.38;4.50;;;;;;;;;;4965408;28;20030;-60
2022/08/29 13:22:29;;;;;;;4.50;4.10;;;;;;;;;;4965958;28;20444;-60
2022/08/29 13:25:01;;;;;;;5.65;4.45;;;;;;;;;;4966127;28;20130;-61
2022/08/29 13:27:26;;;;;;;4.70;4.22;;;;;;;;;;4966948;28;20031;-60
2022/08/29 13:29:58;;;;;;;4.80;4.50;;;;;;;;;;4968152;28;20503;-60
2022/08/29 13:32:25;;;;;;;4.82;4.43;;;;;;;;;;4966060;28;20505;-61
2022/08/29 13:35:09;;;;;;;5.88;5.25;;;;;;;;;;4982822;28;20057;-59
2022/08/29 13:37:38;;;;;;;7.75;5.15;;;;;;;;;;4987075;28;20034;-60
2022/08/29 13:40:22;;;;;;;7.43;5.13;;;;;;;;;;4985506;28;20042;-60
2022/08/29 13:42:48;;;;;;;5.55;5.10;;;;;;;;;;4986499;28;20030;-61
2022/08/29 13:45:18;;;;;;;5.43;4.93;;;;;;;;;;4986607;28;20069;-59
2022/08/29 13:47:48;;;;;;;4.93;4.53;;;;;;;;;;4987363;28;20029;-59
2022/08/29 13:50:14;;;;;;;5.53;5.00;;;;;;;;;;4986430;28;20034;-60
2022/08/29 13:52:39;;;;;;;7.80;4.63;;;;;;;;;;4985643;28;20477;-59
2022/08/29 13:55:05;;;;;;;5.43;4.60;;;;;;;;;;4982542;28;20066;-59
2022/08/29 13:57:31;;;;;;;5.00;4.53;;;;;;;;;;4982491;28;20034;-59
2022/08/29 13:59:56;;;;;;;5.32;4.47;;;;;;;;;;4985112;28;20038;-59
2022/08/29 14:02:23;;;;;;;5.35;4.57;;;;;;;;;;4986705;28;20035;-61
2022/08/29 14:04:48;;;;;;;4.88;4.40;;;;;;;;;;4985716;28;20037;-59
2022/08/29 14:07:21;;;;;;;5.95;5.40;;;;;;;;;;4981354;28;20085;-60
2022/08/29 14:09:49;;;;;;;4.88;4.47;;;;;;;;;;4982369;28;20033;-59
2022/08/29 14:12:15;;;;;;;5.00;4.70;;;;;;;;;;4985195;28;20030;-59
2022/08/29 14:14:41;;;;;;;5.13;4.68;;;;;;;;;;4984666;28;20077;-61
2022/08/29 14:17:06;;;;;;;5.25;4.80;;;;;;;;;;4984323;28;20896;-59
2022/08/29 14:19:32;;;;;;;5.47;4.97;;;;;;;;;;4985295;28;20032;-59
2022/08/29 14:22:00;;;;;;;5.22;4.72;;;;;;;;;;4985293;28;20041;-60
2022/08/29 14:24:29;;;;;;;5.75;4.38;;;;;;;;;;4985322;28;20140;-59
2022/08/29 14:26:55;;;;;;;7.82;6.05;;;;;;;;;;4985663;28;20041;-60
2022/08/29 14:29:22;;;;;;;5.57;4.65;;;;;;;;;;4984683;28;20532;-60
2022/08/29 14:31:48;;;;;;;5.22;4.45;;;;;;;;;;4979050;28;20033;-59
2022/08/29 14:34:13;;;;;;;5.63;4.78;;;;;;;;;;4980488;28;20413;-60
2022/08/29 14:36:38;;;;;;;5.57;5.18;;;;;;;;;;4978846;28;20109;-60
2022/08/29 14:39:05;;;;;;;5.60;5.07;;;;;;;;;;4980394;28;20034;-60
2022/08/29 14:41:31;;;;;;;6.97;5.50;;;;;;;;;;4984674;28;20030;-60
2022/08/29 14:43:56;;;;;;;4.68;4.38;;;;;;;;;;4984943;28;20037;-60
2022/08/29 14:46:22;;;;;;;5.55;5.00;;;;;;;;;;4984469;28;20027;-60
2022/08/29 14:48:47;;;;;;;6.00;5.40;;;;;;;;;;4985711;28;20038;-60
2022/08/29 14:51:12;;;;;;;5.70;5.15;;;;;;;;;;4984777;28;20516;-60